Time;durP1;ratioP1;P1;durP2;ratioP2;P2;SDS_P1;SDS_P2;PMS_P1;PMS_P2;Temp;Humidity;BMP_temperature;BMP_pressure;BME280_temperature;BME280_humidity;BME280_pressure;Samples;Min_cycle;Max_cycle;Signal;HPM_P1;HPM_P2
2023/05/15 00:02:17;;;;;;;37.38;30.85;;;11.00;99.90;;;;;;5105128;28;20427;-78
2023/05/15 00:04:43;;;;;;;32.72;29.30;;;11.00;99.90;;;;;;5111287;27;20420;-81
2023/05/15 00:07:09;;;;;;;36.15;30.73;;;10.90;99.90;;;;;;5109511;28;20408;-81
2023/05/15 00:09:35;;;;;;;35.33;31.42;;;11.20;99.90;;;;;;5105133;28;20417;-80
2023/05/15 00:12:01;;;;;;;40.05;32.65;;;10.80;99.90;;;;;;5104852;28;20423;-80
2023/05/15 00:14:26;;;;;;;38.13;32.05;;;10.70;99.90;;;;;;5089886;28;20773;-79
2023/05/15 00:16:52;;;;;;;42.90;34.10;;;10.90;99.90;;;;;;5091091;28;20434;-80
2023/05/15 00:19:18;;;;;;;43.92;36.83;;;10.90;99.90;;;;;;5112359;27;20407;-81
2023/05/15 00:21:43;;;;;;;38.80;33.53;;;11.00;99.90;;;;;;5100830;27;20495;-80
2023/05/15 00:24:09;;;;;;;40.43;36.13;;;10.90;99.90;;;;;;5087925;28;20398;-81
2023/05/15 00:26:35;;;;;;;39.93;34.20;;;10.80;99.90;;;;;;5087622;28;20410;-81
2023/05/15 00:29:01;;;;;;;41.33;35.72;;;11.00;99.90;;;;;;5101804;28;20424;-79
2023/05/15 00:31:27;;;;;;;43.58;37.03;;;11.00;99.90;;;;;;5108379;28;20396;-80
2023/05/15 00:33:52;;;;;;;40.50;35.20;;;11.10;99.90;;;;;;5128210;27;20429;-79
2023/05/15 00:36:20;;;;;;;36.47;32.07;;;10.90;99.90;;;;;;5097488;28;20430;-80
2023/05/15 00:38:46;;;;;;;37.35;33.38;;;10.90;99.90;;;;;;5092327;28;20422;-78
2023/05/15 00:41:13;;;;;;;39.60;33.67;;;10.90;99.90;;;;;;5104911;28;20408;-80
2023/05/15 00:43:40;;;;;;;42.40;34.72;;;10.90;99.90;;;;;;5105889;28;20515;-79
2023/05/15 00:46:06;;;;;;;38.05;32.97;;;10.90;99.90;;;;;;5093813;27;20854;-79
2023/05/15 00:48:33;;;;;;;40.80;33.38;;;10.90;99.90;;;;;;5101752;27;20423;-81
2023/05/15 00:50:59;;;;;;;38.88;34.70;;;10.80;99.90;;;;;;5093193;28;20442;-80
2023/05/15 00:53:26;;;;;;;37.10;32.47;;;10.70;99.90;;;;;;5091638;28;21105;-79
2023/05/15 00:55:56;;;;;;;38.20;33.58;;;10.60;99.90;;;;;;5090556;27;20898;-78
2023/05/15 00:58:23;;;;;;;39.83;33.90;;;10.60;99.90;;;;;;5090130;28;20466;-80
2023/05/15 01:00:49;;;;;;;37.03;32.15;;;10.60;99.90;;;;;;5086939;28;21973;-79
2023/05/15 01:03:15;;;;;;;36.00;32.17;;;10.60;99.90;;;;;;5091794;28;20408;-79
2023/05/15 01:05:41;;;;;;;30.90;26.65;;;10.60;99.90;;;;;;5092928;28;20433;-80
2023/05/15 01:08:19;;;;;;;32.05;27.48;;;10.60;99.90;;;;;;5089371;28;20414;-80
2023/05/15 01:10:47;;;;;;;33.95;27.58;;;10.40;99.90;;;;;;5091839;28;20468;-80
2023/05/15 01:13:14;;;;;;;32.00;27.83;;;10.30;99.90;;;;;;5086715;28;21464;-78
2023/05/15 01:15:40;;;;;;;34.28;28.25;;;10.10;99.90;;;;;;5094458;27;20442;-79
2023/05/15 01:18:06;;;;;;;35.35;28.17;;;10.30;99.90;;;;;;5087910;28;20421;-80
2023/05/15 01:20:59;;;;;;;40.83;28.83;;;10.30;99.90;;;;;;5087681;27;20915;-78
2023/05/15 01:23:43;;;;;;;53.85;30.38;;;10.30;99.90;;;;;;5099712;28;20576;-79
2023/05/15 01:26:28;;;;;;;32.42;28.95;;;10.30;99.90;;;;;;5088717;28;20425;-79
2023/05/15 01:29:25;;;;;;;33.88;28.17;;;10.30;99.90;;;;;;5087500;28;20428;-79
2023/05/15 01:32:00;;;;;;;32.25;28.73;;;10.20;99.90;;;;;;5088421;28;20469;-78
2023/05/15 01:34:33;;;;;;;33.95;30.35;;;10.10;99.90;;;;;;5092450;28;20416;-78
2023/05/15 01:37:02;;;;;;;34.63;29.40;;;10.20;99.90;;;;;;5092088;28;20444;-78
2023/05/15 01:39:32;;;;;;;32.58;28.88;;;10.20;99.90;;;;;;5091566;28;20464;-77
2023/05/15 01:42:09;;;;;;;35.88;32.05;;;10.10;99.90;;;;;;5087763;28;20426;-81
2023/05/15 01:44:39;;;;;;;33.03;29.52;;;10.00;99.90;;;;;;5092256;28;20414;-80
2023/05/15 01:47:29;;;;;;;37.72;30.35;;;10.30;99.90;;;;;;5093849;28;20430;-80
2023/05/15 01:49:56;;;;;;;38.67;30.17;;;10.30;99.90;;;;;;5081199;28;20508;-78
2023/05/15 01:52:32;;;;;;;39.22;31.55;;;10.30;99.90;;;;;;5087819;28;20479;-80
2023/05/15 01:55:00;;;;;;;37.58;32.97;;;10.30;99.90;;;;;;5103865;28;20420;-79
2023/05/15 01:57:28;;;;;;;45.53;33.50;;;10.10;99.90;;;;;;5092644;28;20418;-79
2023/05/15 01:59:56;;;;;;;41.23;33.97;;;9.90;99.90;;;;;;5098391;27;20522;-79
2023/05/15 02:02:22;;;;;;;36.53;29.87;;;10.00;99.90;;;;;;5130197;27;20509;-79
2023/05/15 02:04:49;;;;;;;38.00;30.73;;;10.00;99.90;;;;;;5098516;28;20405;-80
2023/05/15 02:07:16;;;;;;;37.22;32.03;;;10.10;99.90;;;;;;5097875;28;20467;-79
2023/05/15 02:09:42;;;;;;;38.95;32.78;;;10.20;99.90;;;;;;5106635;27;20473;-77
2023/05/15 02:12:09;;;;;;;44.00;35.07;;;10.00;99.90;;;;;;5108282;28;20420;-81
2023/05/15 02:14:36;;;;;;;47.15;38.47;;;10.10;99.90;;;;;;5102775;28;20417;-79
2023/05/15 02:17:02;;;;;;;43.00;33.53;;;9.90;99.90;;;;;;5102673;28;20433;-80
2023/05/15 02:19:28;;;;;;;39.03;32.83;;;9.90;99.90;;;;;;5124182;27;20412;-78
2023/05/15 02:21:53;;;;;;;50.35;36.97;;;9.90;99.90;;;;;;5103060;27;20458;-78
2023/05/15 02:24:19;;;;;;;46.17;33.93;;;9.80;99.90;;;;;;5123556;27;20527;-78
2023/05/15 02:27:10;;;;;;;45.08;34.90;;;9.90;99.90;;;;;;5117073;28;20427;-79
2023/05/15 02:30:06;;;;;;;46.83;30.70;;;9.90;99.90;;;;;;5120761;28;20389;-78
2023/05/15 02:32:45;;;;;;;38.85;32.75;;;9.70;99.90;;;;;;5120163;28;20423;-80
2023/05/15 02:35:17;;;;;;;36.45;32.35;;;9.70;99.90;;;;;;5101646;28;20756;-78
2023/05/15 02:37:46;;;;;;;38.08;33.35;;;9.80;99.90;;;;;;5102935;28;20460;-79
2023/05/15 02:40:14;;;;;;;36.50;31.33;;;9.70;99.90;;;;;;5104077;28;20416;-80
2023/05/15 02:42:40;;;;;;;40.88;32.20;;;9.70;99.90;;;;;;5108876;28;20429;-81
2023/05/15 02:45:08;;;;;;;39.80;33.83;;;9.80;99.90;;;;;;5111555;28;20397;-80
2023/05/15 02:47:34;;;;;;;37.83;31.57;;;9.90;99.90;;;;;;5102910;28;20512;-82
2023/05/15 02:50:00;;;;;;;37.28;30.13;;;10.40;99.90;;;;;;5096201;28;20429;-80
2023/05/15 02:52:25;;;;;;;34.90;30.02;;;9.90;99.90;;;;;;5105822;27;20459;-81
2023/05/15 02:54:52;;;;;;;35.60;29.35;;;9.80;99.90;;;;;;5096380;27;20460;-81
2023/05/15 02:57:18;;;;;;;38.65;31.25;;;9.90;99.90;;;;;;5099275;28;20760;-79
2023/05/15 02:59:44;;;;;;;35.67;30.53;;;9.90;99.90;;;;;;5100658;28;20428;-80
2023/05/15 03:02:09;;;;;;;32.30;28.92;;;10.10;99.90;;;;;;5102556;27;20785;-78
2023/05/15 03:04:35;;;;;;;32.53;27.77;;;10.00;99.90;;;;;;5113374;27;20420;-79
2023/05/15 03:07:01;;;;;;;32.53;29.23;;;9.90;99.90;;;;;;5094755;28;20414;-76
2023/05/15 03:09:27;;;;;;;32.20;28.90;;;9.90;99.90;;;;;;5109378;28;20479;-80
2023/05/15 03:11:52;;;;;;;30.33;27.27;;;10.00;99.90;;;;;;5107544;28;20798;-81
2023/05/15 03:14:18;;;;;;;30.83;27.60;;;10.00;99.90;;;;;;5109209;27;20436;-79
2023/05/15 03:16:43;;;;;;;32.70;29.27;;;10.00;99.90;;;;;;5102996;28;20449;-80
2023/05/15 03:19:09;;;;;;;28.87;25.90;;;10.10;99.90;;;;;;5105314;28;20417;-79
2023/05/15 03:21:35;;;;;;;30.47;27.43;;;10.00;99.90;;;;;;5097228;28;20418;-79
2023/05/15 03:24:01;;;;;;;30.43;27.37;;;10.10;99.90;;;;;;5097266;28;20476;-80
2023/05/15 03:26:26;;;;;;;30.27;27.02;;;10.00;99.90;;;;;;5093410;28;20424;-78
2023/05/15 03:28:52;;;;;;;30.92;27.80;;;10.20;99.90;;;;;;5093335;28;20506;-78
2023/05/15 03:31:18;;;;;;;29.38;26.35;;;10.20;99.90;;;;;;5092530;28;20422;-80
2023/05/15 03:33:45;;;;;;;31.10;26.80;;;10.20;99.90;;;;;;5101881;28;20440;-78
2023/05/15 03:36:11;;;;;;;30.95;27.95;;;10.20;99.90;;;;;;5091196;28;20520;-78
2023/05/15 03:38:37;;;;;;;31.10;27.73;;;10.30;99.90;;;;;;5091952;28;20519;-80
2023/05/15 03:41:02;;;;;;;28.80;25.93;;;10.10;99.90;;;;;;5094113;28;20424;-77
2023/05/15 03:43:28;;;;;;;31.47;26.97;;;10.20;99.90;;;;;;5092352;28;20952;-79
2023/05/15 03:45:54;;;;;;;32.13;28.80;;;10.10;99.90;;;;;;5092578;28;20509;-80
2023/05/15 03:48:20;;;;;;;31.83;28.57;;;10.10;99.90;;;;;;5100604;28;20428;-80
2023/05/15 03:50:45;;;;;;;30.80;27.70;;;10.10;99.90;;;;;;5093734;28;20882;-80
2023/05/15 03:53:11;;;;;;;31.40;27.17;;;10.20;99.90;;;;;;5091271;28;20738;-80
2023/05/15 03:55:37;;;;;;;31.70;28.53;;;10.30;99.90;;;;;;5091844;28;20819;-80
2023/05/15 03:58:02;;;;;;;30.20;27.17;;;10.30;99.90;;;;;;5093194;28;20424;-79
2023/05/15 04:00:28;;;;;;;30.15;26.98;;;10.30;99.90;;;;;;5088619;28;20403;-80
2023/05/15 04:02:54;;;;;;;29.67;26.73;;;10.40;99.90;;;;;;5091304;28;20506;-79
2023/05/15 04:05:20;;;;;;;28.25;25.38;;;10.40;99.90;;;;;;5089579;28;20426;-80
2023/05/15 04:07:46;;;;;;;26.67;24.00;;;10.50;99.90;;;;;;5090966;28;20404;-81
2023/05/15 04:10:12;;;;;;;25.37;22.87;;;10.30;99.90;;;;;;5096724;28;21080;-79
2023/05/15 04:12:37;;;;;;;27.07;24.33;;;10.40;99.90;;;;;;5091379;27;20430;-79
2023/05/15 04:15:13;;;;;;;27.00;24.40;;;10.40;99.90;;;;;;5096969;28;20445;-79
2023/05/15 04:17:39;;;;;;;27.20;24.63;;;10.30;99.90;;;;;;5123129;27;21035;-80
2023/05/15 04:20:06;;;;;;;27.60;24.57;;;10.60;99.90;;;;;;5103014;27;20501;-80
2023/05/15 04:22:31;;;;;;;26.20;23.58;;;10.30;99.90;;;;;;5099746;27;20416;-79
2023/05/15 04:24:57;;;;;;;24.30;21.90;;;10.30;99.90;;;;;;5101417;28;20493;-77
2023/05/15 04:27:23;;;;;;;26.02;23.52;;;10.50;99.90;;;;;;5108925;27;20586;-79
2023/05/15 04:29:48;;;;;;;25.13;22.50;;;10.50;99.90;;;;;;5129024;27;20749;-80
2023/05/15 04:32:14;;;;;;;23.92;21.55;;;10.60;99.90;;;;;;5111612;27;20401;-78
2023/05/15 04:34:41;;;;;;;22.08;20.08;;;10.60;99.90;;;;;;5106794;28;20427;-80
2023/05/15 04:37:06;;;;;;;22.45;20.05;;;10.70;99.90;;;;;;5105506;28;20431;-78
2023/05/15 04:39:32;;;;;;;23.40;21.07;;;10.60;99.90;;;;;;5108603;28;20553;-78
2023/05/15 04:41:58;;;;;;;28.07;21.77;;;10.80;99.90;;;;;;5109435;28;20795;-78
2023/05/15 04:44:23;;;;;;;23.37;21.17;;;10.80;99.90;;;;;;5087749;28;20708;-78
2023/05/15 04:46:49;;;;;;;24.42;22.20;;;10.70;99.90;;;;;;5088204;28;20412;-79
2023/05/15 04:49:15;;;;;;;24.67;22.48;;;10.80;99.90;;;;;;5088940;28;20759;-79
2023/05/15 04:51:40;;;;;;;22.67;20.48;;;10.70;99.90;;;;;;5088472;28;20900;-80
2023/05/15 04:54:06;;;;;;;23.98;21.80;;;10.60;99.90;;;;;;5096795;28;20431;-79
2023/05/15 04:56:32;;;;;;;24.75;22.23;;;11.20;99.90;;;;;;5095484;28;20475;-78
2023/05/15 04:58:58;;;;;;;23.45;21.17;;;11.10;99.90;;;;;;5095875;28;20416;-77
2023/05/15 05:01:24;;;;;;;22.52;20.42;;;11.30;99.90;;;;;;5085309;28;20408;-78
2023/05/15 05:03:50;;;;;;;21.70;19.50;;;11.70;99.90;;;;;;5096633;28;20783;-78
2023/05/15 05:06:15;;;;;;;25.23;22.73;;;11.70;99.90;;;;;;5095930;28;20479;-78
2023/05/15 05:08:41;;;;;;;22.13;19.83;;;11.50;99.90;;;;;;5098842;28;20416;-80
2023/05/15 05:11:06;;;;;;;24.03;21.60;;;11.60;99.90;;;;;;5092118;28;20421;-79
2023/05/15 05:13:32;;;;;;;25.23;22.83;;;11.60;99.90;;;;;;5120589;27;20511;-78
2023/05/15 05:15:58;;;;;;;24.13;21.73;;;11.50;99.90;;;;;;5101957;28;20448;-79
2023/05/15 05:18:23;;;;;;;25.27;22.90;;;11.70;99.90;;;;;;5109610;28;20412;-79
2023/05/15 05:20:49;;;;;;;24.90;22.70;;;11.60;99.90;;;;;;5108756;28;20416;-79
2023/05/15 05:23:15;;;;;;;22.50;20.38;;;11.70;99.90;;;;;;5107573;28;20424;-79
2023/05/15 05:25:41;;;;;;;24.77;22.35;;;11.80;99.90;;;;;;5104095;28;20497;-78
2023/05/15 05:28:06;;;;;;;23.27;21.17;;;11.80;99.90;;;;;;5100655;28;20858;-78
2023/05/15 05:30:32;;;;;;;23.97;21.50;;;11.80;99.90;;;;;;5116743;27;20420;-78
2023/05/15 05:32:57;;;;;;;23.20;20.83;;;11.80;99.90;;;;;;5096952;28;20433;-79
2023/05/15 05:35:23;;;;;;;24.20;21.60;;;11.90;99.90;;;;;;5093346;28;20772;-78
2023/05/15 05:37:49;;;;;;;22.83;20.70;;;12.00;99.90;;;;;;5098660;28;20468;-80
2023/05/15 05:40:16;;;;;;;22.27;20.00;;;12.00;99.90;;;;;;5101933;28;20413;-79
2023/05/15 05:42:42;;;;;;;22.15;20.05;;;11.90;99.90;;;;;;5095722;28;20519;-77
2023/05/15 05:45:08;;;;;;;22.77;20.77;;;11.80;99.90;;;;;;5088409;28;20507;-77
2023/05/15 05:47:33;;;;;;;24.33;21.88;;;11.80;99.90;;;;;;5091274;28;20410;-78
2023/05/15 05:49:59;;;;;;;25.20;22.67;;;11.80;99.90;;;;;;5084949;28;20617;-77
2023/05/15 05:52:25;;;;;;;24.63;22.37;;;11.70;99.90;;;;;;5088875;28;20526;-77
2023/05/15 05:54:50;;;;;;;25.02;22.55;;;11.70;99.90;;;;;;5094988;28;20408;-79
2023/05/15 05:57:16;;;;;;;26.60;23.98;;;11.70;99.90;;;;;;5105191;28;20428;-78
2023/05/15 05:59:42;;;;;;;27.27;24.42;;;11.70;99.90;;;;;;5088114;28;20418;-78
2023/05/15 06:02:08;;;;;;;24.73;22.23;;;11.60;99.90;;;;;;5089541;28;20490;-79
2023/05/15 06:04:33;;;;;;;27.10;24.23;;;11.70;99.90;;;;;;5088032;28;20940;-79
2023/05/15 06:06:59;;;;;;;25.38;20.92;;;11.70;99.90;;;;;;5086993;28;20428;-80
2023/05/15 06:09:25;;;;;;;24.50;22.00;;;11.60;99.90;;;;;;5117361;27;20459;-77
2023/05/15 06:11:51;;;;;;;24.55;21.98;;;11.60;99.90;;;;;;5090472;28;20410;-79
2023/05/15 06:14:17;;;;;;;23.13;20.92;;;11.70;99.90;;;;;;5086185;28;20780;-80
2023/05/15 06:16:42;;;;;;;21.52;19.48;;;11.90;99.90;;;;;;5094937;28;20428;-80
2023/05/15 06:19:08;;;;;;;23.50;20.92;;;11.70;99.90;;;;;;5099137;28;20797;-78
2023/05/15 06:21:34;;;;;;;24.43;22.17;;;11.80;99.90;;;;;;5105515;28;20412;-76
2023/05/15 06:23:59;;;;;;;23.37;21.07;;;11.80;99.90;;;;;;5139478;27;20561;-78
2023/05/15 06:26:25;;;;;;;24.13;21.90;;;11.80;99.90;;;;;;5106009;28;20465;-77
2023/05/15 06:28:51;;;;;;;24.92;22.73;;;11.90;99.90;;;;;;5115483;28;20406;-80
2023/05/15 06:31:16;;;;;;;25.15;22.80;;;12.10;99.90;;;;;;5094201;28;20498;-78
2023/05/15 06:33:42;;;;;;;22.63;20.40;;;12.20;99.90;;;;;;5098517;28;20420;-79
2023/05/15 06:36:08;;;;;;;21.70;19.70;;;12.10;99.90;;;;;;5103769;28;20435;-79
2023/05/15 06:38:34;;;;;;;21.83;19.93;;;12.10;99.90;;;;;;5131318;27;20440;-80
2023/05/15 06:40:59;;;;;;;24.13;21.83;;;12.10;99.90;;;;;;5120241;28;20489;-80
2023/05/15 06:43:25;;;;;;;24.07;21.70;;;12.10;99.90;;;;;;5093394;28;20426;-76
2023/05/15 06:45:51;;;;;;;22.77;20.67;;;12.20;99.90;;;;;;5109430;28;20427;-78
2023/05/15 06:48:16;;;;;;;20.60;18.67;;;12.40;99.90;;;;;;5110929;27;20455;-76
2023/05/15 06:50:42;;;;;;;19.65;17.80;;;12.40;99.90;;;;;;5090368;27;20941;-79
2023/05/15 06:53:07;;;;;;;19.45;17.55;;;12.70;99.90;;;;;;5093849;28;20442;-79
2023/05/15 06:55:35;;;;;;;21.33;19.30;;;12.40;99.90;;;;;;5109497;27;20441;-78
2023/05/15 06:58:01;;;;;;;21.33;18.98;;;12.50;99.90;;;;;;5107517;28;20456;-80
2023/05/15 07:00:26;;;;;;;19.90;17.83;;;12.60;99.90;;;;;;5098832;27;20439;-77
2023/05/15 07:02:52;;;;;;;20.92;19.02;;;12.70;99.90;;;;;;5105014;27;20840;-79
2023/05/15 07:05:18;;;;;;;21.30;19.05;;;13.00;99.90;;;;;;5092100;28;20499;-78
2023/05/15 07:07:43;;;;;;;22.57;20.57;;;15.20;99.90;;;;;;5090620;28;20410;-77
2023/05/15 07:10:10;;;;;;;24.93;19.67;;;15.80;99.90;;;;;;5089743;28;20454;-78
2023/05/15 07:12:35;;;;;;;20.30;18.40;;;15.40;99.90;;;;;;5113427;27;20755;-77
2023/05/15 07:15:01;;;;;;;23.48;20.27;;;14.70;99.90;;;;;;5097847;27;20489;-79
2023/05/15 07:17:27;;;;;;;19.55;17.83;;;15.30;99.90;;;;;;5112201;27;20461;-78
2023/05/15 07:19:52;;;;;;;19.53;17.60;;;16.10;99.90;;;;;;5105120;27;20493;-75
2023/05/15 07:22:18;;;;;;;19.40;17.40;;;15.50;99.90;;;;;;5111025;27;20417;-73
2023/05/15 07:24:44;;;;;;;18.75;16.90;;;15.80;99.90;;;;;;5109355;28;21015;-73
2023/05/15 07:27:09;;;;;;;20.08;18.10;;;15.40;99.90;;;;;;5106573;28;20427;-75
2023/05/15 07:29:35;;;;;;;17.03;15.43;;;15.10;99.90;;;;;;5090873;28;20414;-74
2023/05/15 07:32:01;;;;;;;18.23;16.43;;;15.60;99.90;;;;;;5091810;28;20519;-73
2023/05/15 07:34:26;;;;;;;16.90;15.18;;;15.40;99.90;;;;;;5112333;27;20429;-74
2023/05/15 07:36:52;;;;;;;16.90;15.20;;;15.00;99.90;;;;;;5128370;27;20431;-73
2023/05/15 07:39:18;;;;;;;17.83;16.03;;;15.00;99.90;;;;;;5127828;27;20450;-74
2023/05/15 07:41:45;;;;;;;16.83;15.03;;;14.90;99.90;;;;;;5110916;27;20426;-73
2023/05/15 07:44:11;;;;;;;17.08;15.35;;;14.70;99.90;;;;;;5104791;27;20784;-72
2023/05/15 07:46:37;;;;;;;16.63;14.93;;;14.90;99.90;;;;;;5106734;27;20414;-72
2023/05/15 07:49:03;;;;;;;15.88;14.32;;;14.80;99.90;;;;;;5089946;28;20754;-76
2023/05/15 07:51:29;;;;;;;16.17;14.63;;;14.70;99.90;;;;;;5107618;27;20427;-75
2023/05/15 07:53:54;;;;;;;16.23;14.60;;;14.90;99.90;;;;;;5108451;27;20530;-76
2023/05/15 07:56:20;;;;;;;14.27;12.88;;;15.10;99.90;;;;;;5103100;27;20426;-77
2023/05/15 07:58:46;;;;;;;15.43;13.63;;;15.00;99.90;;;;;;5089797;28;20889;-75
2023/05/15 08:01:11;;;;;;;13.87;12.60;;;15.20;99.90;;;;;;5118041;27;20446;-76
2023/05/15 08:03:37;;;;;;;13.47;11.83;;;15.40;99.90;;;;;;5124868;27;20518;-74
2023/05/15 08:06:03;;;;;;;14.05;12.63;;;15.60;99.90;;;;;;5107816;27;20434;-76
2023/05/15 08:08:29;;;;;;;13.85;12.25;;;15.40;99.90;;;;;;5092026;28;20461;-77
2023/05/15 08:10:55;;;;;;;12.83;11.70;;;15.20;99.90;;;;;;5101836;28;20520;-75
2023/05/15 08:13:20;;;;;;;12.50;11.30;;;15.10;99.90;;;;;;5087536;28;20426;-76
2023/05/15 08:15:46;;;;;;;13.57;12.18;;;15.50;99.90;;;;;;5086878;28;20911;-77
2023/05/15 08:18:12;;;;;;;13.63;12.18;;;15.00;99.90;;;;;;5088350;28;20422;-75
2023/05/15 08:20:38;;;;;;;12.07;10.83;;;15.70;99.90;;;;;;5088100;28;20402;-75
2023/05/15 08:23:03;;;;;;;12.35;11.05;;;15.80;99.90;;;;;;5090709;28;20950;-74
2023/05/15 08:25:29;;;;;;;14.48;11.50;;;15.80;99.90;;;;;;5101589;28;20536;-74
2023/05/15 08:27:55;;;;;;;14.05;12.75;;;15.40;99.90;;;;;;5086997;28;20489;-76
2023/05/15 08:30:20;;;;;;;12.48;11.18;;;15.20;99.90;;;;;;5103898;28;20438;-76
2023/05/15 08:32:47;;;;;;;12.07;10.90;;;15.60;99.90;;;;;;5108066;28;20715;-76
2023/05/15 08:35:13;;;;;;;11.90;10.65;;;15.50;99.90;;;;;;5108894;28;20400;-75
2023/05/15 08:37:39;;;;;;;11.70;10.40;;;15.70;99.90;;;;;;5108169;28;20507;-75
2023/05/15 08:40:06;;;;;;;13.50;12.02;;;16.00;99.90;;;;;;5102719;27;20985;-75
2023/05/15 08:42:41;;;;;;;14.38;11.73;;;16.30;99.90;;;;;;5107329;28;20404;-76
2023/05/15 08:45:08;;;;;;;12.63;11.32;;;16.10;99.90;;;;;;5106715;28;20906;-77
2023/05/15 08:47:38;;;;;;;14.98;11.85;;;16.40;99.90;;;;;;5107755;28;20464;-77
2023/05/15 08:50:13;;;;;;;13.13;11.83;;;16.10;99.90;;;;;;5108842;27;20531;-75
2023/05/15 08:52:45;;;;;;;14.30;10.35;;;16.20;99.90;;;;;;5106053;28;20428;-75
2023/05/15 08:55:15;;;;;;;13.55;12.02;;;16.60;99.90;;;;;;5107407;28;20408;-78
2023/05/15 08:57:42;;;;;;;15.60;11.25;;;16.50;99.90;;;;;;5105657;28;20427;-76
2023/05/15 09:00:13;;;;;;;11.90;10.37;;;16.80;99.90;;;;;;5108404;28;20391;-76
2023/05/15 09:02:39;;;;;;;13.18;11.77;;;16.50;99.90;;;;;;5108251;28;20435;-76
2023/05/15 09:05:06;;;;;;;13.25;11.38;;;16.80;99.90;;;;;;5106394;28;20397;-77
2023/05/15 09:07:32;;;;;;;11.27;10.07;;;16.90;99.90;;;;;;5107254;28;20534;-76
2023/05/15 09:10:00;;;;;;;11.15;10.05;;;17.10;99.90;;;;;;5106933;28;20416;-77
2023/05/15 09:12:26;;;;;;;12.10;10.53;;;16.70;99.90;;;;;;5106083;28;20485;-76
2023/05/15 09:15:11;;;;;;;10.77;9.70;;;17.00;99.90;;;;;;5117433;27;20421;-76
2023/05/15 09:17:37;;;;;;;10.27;9.18;;;17.30;99.90;;;;;;5098003;28;20447;-76
2023/05/15 09:20:07;;;;;;;11.33;9.70;;;16.80;99.90;;;;;;5089912;28;20479;-76
2023/05/15 09:22:36;;;;;;;13.60;9.27;;;17.00;99.90;;;;;;5107659;28;20400;-76
2023/05/15 09:25:03;;;;;;;10.10;9.20;;;17.20;99.90;;;;;;5108713;28;20755;-75
2023/05/15 09:27:29;;;;;;;11.85;10.38;;;16.80;99.90;;;;;;5106888;28;20403;-75
2023/05/15 09:30:06;;;;;;;12.98;9.57;;;17.10;99.90;;;;;;5095959;27;20465;-75
2023/05/15 09:32:32;;;;;;;10.23;9.07;;;17.10;99.90;;;;;;5101065;28;20463;-75
2023/05/15 09:34:58;;;;;;;14.93;9.98;;;17.40;99.90;;;;;;5100901;27;20425;-75
2023/05/15 09:37:30;;;;;;;10.77;9.68;;;17.00;99.90;;;;;;5092018;28;20437;-76
2023/05/15 09:40:07;;;;;;;11.80;10.52;;;16.90;99.90;;;;;;5096086;28;20412;-76
2023/05/15 09:42:34;;;;;;;11.13;9.98;;;17.30;99.90;;;;;;5103438;28;20424;-75
2023/05/15 09:45:01;;;;;;;12.52;10.65;;;17.30;99.90;;;;;;5103423;28;20514;-76
2023/05/15 09:47:26;;;;;;;13.77;12.40;;;16.80;99.90;;;;;;5107965;28;20423;-76
2023/05/15 09:49:52;;;;;;;14.57;11.27;;;16.60;99.90;;;;;;5091370;28;20488;-75
2023/05/15 09:52:18;;;;;;;15.25;12.23;;;16.60;99.90;;;;;;5096126;28;20430;-75
2023/05/15 09:54:47;;;;;;;15.60;12.53;;;16.60;99.90;;;;;;5093474;28;20409;-75
2023/05/15 09:57:13;;;;;;;15.40;13.23;;;16.80;99.90;;;;;;5105427;28;20958;-75
2023/05/15 09:59:47;;;;;;;15.02;13.40;;;16.60;99.90;;;;;;5097686;28;20440;-75
2023/05/15 10:02:30;;;;;;;14.75;13.13;;;16.80;99.90;;;;;;5106524;28;20423;-76
2023/05/15 10:04:57;;;;;;;14.60;12.65;;;16.50;99.90;;;;;;5105895;28;20431;-76
2023/05/15 10:07:30;;;;;;;13.45;11.77;;;17.00;99.90;;;;;;5094449;28;20428;-76
2023/05/15 10:09:56;;;;;;;12.25;10.90;;;16.70;99.90;;;;;;5097119;28;20473;-76
2023/05/15 10:12:22;;;;;;;12.20;10.40;;;17.20;99.90;;;;;;5139367;27;20420;-76
2023/05/15 10:14:50;;;;;;;14.05;12.65;;;17.40;99.90;;;;;;5103091;28;20421;-77
2023/05/15 10:17:18;;;;;;;14.20;12.80;;;17.00;99.90;;;;;;5101722;28;20421;-74
2023/05/15 10:19:45;;;;;;;14.77;13.27;;;16.90;99.90;;;;;;5097280;28;21041;-75
2023/05/15 10:22:13;;;;;;;13.90;12.48;;;17.00;99.90;;;;;;5108688;28;20424;-75
2023/05/15 10:24:41;;;;;;;14.50;13.10;;;17.50;99.90;;;;;;5096592;27;20447;-74
2023/05/15 10:27:09;;;;;;;15.55;13.95;;;17.50;99.90;;;;;;5107259;27;20456;-77
2023/05/15 10:29:36;;;;;;;15.85;14.43;;;17.80;99.90;;;;;;5091474;28;20766;-75
2023/05/15 10:32:03;;;;;;;14.50;13.23;;;17.50;99.90;;;;;;5092139;28;20398;-75
2023/05/15 10:34:30;;;;;;;15.43;13.30;;;17.00;99.90;;;;;;5090665;28;20737;-75
2023/05/15 10:36:57;;;;;;;14.60;12.73;;;16.50;99.90;;;;;;5086908;28;20515;-76
2023/05/15 10:39:23;;;;;;;12.30;11.17;;;16.80;99.90;;;;;;5111590;27;20499;-76
2023/05/15 10:41:50;;;;;;;12.90;10.82;;;17.00;99.90;;;;;;5110849;28;20400;-77
2023/05/15 10:44:16;;;;;;;11.68;10.48;;;16.90;99.90;;;;;;5111702;27;20427;-76
2023/05/15 10:46:42;;;;;;;12.80;10.10;;;17.00;99.90;;;;;;5116420;27;20420;-76
2023/05/15 10:49:08;;;;;;;13.38;11.07;;;16.90;99.90;;;;;;5112356;27;20418;-75
2023/05/15 10:51:36;;;;;;;20.00;9.73;;;16.70;99.90;;;;;;5110888;28;20404;-76
2023/05/15 10:54:05;;;;;;;9.27;8.43;;;16.90;99.90;;;;;;5110644;28;20412;-77
2023/05/15 10:56:32;;;;;;;9.98;8.18;;;16.90;99.90;;;;;;5102733;28;20422;-76
2023/05/15 10:59:05;;;;;;;9.70;7.30;;;17.10;99.90;;;;;;5094560;27;20968;-76
2023/05/15 11:01:33;;;;;;;9.63;7.85;;;17.40;99.90;;;;;;5110471;28;20436;-77
2023/05/15 11:04:08;;;;;;;9.80;8.85;;;17.80;99.90;;;;;;5107611;28;20536;-77
2023/05/15 11:06:35;;;;;;;11.15;9.93;;;17.20;99.90;;;;;;5108494;28;20408;-75
2023/05/15 11:09:25;;;;;;;10.43;9.40;;;17.20;99.90;;;;;;5117138;27;20423;-76
2023/05/15 11:11:51;;;;;;;8.85;8.05;;;16.80;99.90;;;;;;5107823;28;20412;-77
2023/05/15 11:14:20;;;;;;;10.40;8.40;;;17.50;99.90;;;;;;5110208;27;21024;-77
2023/05/15 11:16:52;;;;;;;10.98;9.73;;;17.80;99.90;;;;;;5120442;27;20422;-75
2023/05/15 11:19:20;;;;;;;11.05;8.73;;;17.50;99.90;;;;;;5114501;27;20899;-77
2023/05/15 11:21:46;;;;;;;10.30;9.03;;;17.60;99.90;;;;;;5109525;28;20501;-77
2023/05/15 11:24:12;;;;;;;10.37;9.27;;;17.90;99.90;;;;;;5112506;27;20433;-76
2023/05/15 11:26:41;;;;;;;10.77;9.25;;;17.70;99.90;;;;;;5111942;27;20901;-76
2023/05/15 11:29:17;;;;;;;10.73;9.43;;;17.90;99.90;;;;;;5123275;27;20472;-76
2023/05/15 11:31:43;;;;;;;10.77;9.60;;;17.60;99.90;;;;;;5116214;27;20428;-77
2023/05/15 11:34:09;;;;;;;9.80;8.90;;;17.50;99.90;;;;;;5098456;28;20414;-77
2023/05/15 11:36:38;;;;;;;11.85;9.60;;;17.00;99.90;;;;;;5104286;28;20492;-78
2023/05/15 11:39:10;;;;;;;11.50;9.50;;;17.40;99.90;;;;;;5122258;27;20402;-75
2023/05/15 11:41:36;;;;;;;11.90;9.87;;;17.40;99.90;;;;;;5129162;27;20418;-76
2023/05/15 11:44:02;;;;;;;10.90;9.80;;;17.70;99.90;;;;;;5130332;27;20433;-75
2023/05/15 11:46:29;;;;;;;11.55;8.75;;;17.70;99.90;;;;;;5105729;27;20810;-76
2023/05/15 11:48:54;;;;;;;10.30;7.90;;;17.90;99.90;;;;;;5098500;27;20511;-75
2023/05/15 11:51:25;;;;;;;8.87;8.00;;;17.60;99.90;;;;;;5108988;28;20484;-75
2023/05/15 11:53:52;;;;;;;8.37;7.33;;;17.90;99.90;;;;;;5108972;28;20392;-76
2023/05/15 11:56:23;;;;;;;8.98;8.00;;;17.00;99.90;;;;;;5108254;28;20416;-77
2023/05/15 11:58:51;;;;;;;7.50;6.35;;;17.50;99.90;;;;;;5109105;28;20743;-77
2023/05/15 12:01:17;;;;;;;8.63;6.55;;;17.30;99.90;;;;;;5103021;27;20811;-77
2023/05/15 12:03:45;;;;;;;6.72;6.10;;;17.60;99.90;;;;;;5109918;28;20451;-77
2023/05/15 12:06:11;;;;;;;8.20;5.60;;;17.30;99.90;;;;;;5109982;28;20397;-76
2023/05/15 12:08:37;;;;;;;7.97;5.32;;;17.30;99.90;;;;;;5116185;27;20411;-76
2023/05/15 12:11:04;;;;;;;11.10;5.57;;;17.00;99.90;;;;;;5129293;27;20718;-76
2023/05/15 12:13:31;;;;;;;8.65;5.82;;;17.00;99.90;;;;;;5117850;27;20427;-76
2023/05/15 12:15:57;;;;;;;7.35;5.20;;;17.10;99.90;;;;;;5099770;28;20460;-76
2023/05/15 12:18:24;;;;;;;8.23;5.68;;;17.10;99.90;;;;;;5107152;28;20440;-76
2023/05/15 12:20:53;;;;;;;5.85;4.97;;;16.50;99.90;;;;;;5099690;28;20784;-76
2023/05/15 12:23:21;;;;;;;9.18;5.40;;;16.50;99.90;;;;;;5087998;28;20417;-76
2023/05/15 12:25:50;;;;;;;7.40;5.22;;;16.50;99.90;;;;;;5088301;28;20406;-77
2023/05/15 12:28:16;;;;;;;9.55;5.65;;;16.20;99.90;;;;;;5090729;28;20423;-75
2023/05/15 12:30:42;;;;;;;6.25;5.32;;;16.70;99.90;;;;;;5141560;27;20408;-76
2023/05/15 12:33:09;;;;;;;7.85;5.28;;;16.60;99.90;;;;;;5109231;28;20457;-75